Time,TemperatureF,DewpointF,PressureIn,WindDirection,WindDirectionDegrees,WindSpeedMPH,WindSpeedGustMPH,Humidity,HourlyPrecipIn,Conditions,Clouds,dailyrainin,SoftwareType,DateUTC
2013-05-11 00:01:00,59.2,54.7,29.81,SSW,197,0.0,2.0,85,0.00,,,0.02,VWS V14.01,2013-05-11 04:01:00,
2013-05-11 00:06:00,59.4,55.5,29.81,NW,324,0.0,1.0,87,0.00,,,0.00,VWS V14.01,2013-05-11 04:06:00,
2013-05-11 00:11:00,58.8,55.3,29.81,NW,324,0.0,1.0,88,0.00,,,0.00,VWS V14.01,2013-05-11 04:11:00,
2013-05-11 00:16:00,58.4,54.9,29.81,NW,324,0.0,1.0,88,0.00,,,0.00,VWS V14.01,2013-05-11 04:16:00,
2013-05-11 00:21:00,58.5,54.7,29.80,East,90,0.0,4.0,87,0.00,,,0.00,VWS V14.01,2013-05-11 04:21:00,
2013-05-11 00:26:00,58.9,54.7,29.80,East,90,0.0,0.0,86,0.00,,,0.00,VWS V14.01,2013-05-11 04:26:00,
2013-05-11 00:31:00,59.2,55.0,29.80,SSE,153,0.0,4.0,86,0.00,,,0.00,VWS V14.01,2013-05-11 04:31:00,
2013-05-11 00:36:00,59.5,54.7,29.80,SSW,196,0.0,2.0,84,0.00,,,0.00,VWS V14.01,2013-05-11 04:36:00,
2013-05-11 00:41:00,59.6,54.4,29.79,WNW,298,0.0,2.0,83,0.00,,,0.00,VWS V14.01,2013-05-11 04:41:00,
2013-05-11 00:46:00,60.1,54.6,29.79,WNW,300,0.0,0.0,82,0.00,,,0.00,VWS V14.01,2013-05-11 04:46:00,
2013-05-11 00:51:00,60.1,54.6,29.79,WNW,300,0.0,1.0,82,0.00,,,0.00,VWS V14.01,2013-05-11 04:51:00,
2013-05-11 00:56:00,60.1,54.6,29.79,WNW,300,0.0,0.0,82,0.00,,,0.00,VWS V14.01,2013-05-11 04:56:00,
2013-05-11 01:01:00,60.3,54.5,29.79,WNW,294,0.0,3.0,81,0.00,,,0.00,VWS V14.01,2013-05-11 05:01:00,
2013-05-11 01:06:00,60.3,54.5,29.79,NW,312,2.0,2.0,81,0.00,,,0.00,VWS V14.01,2013-05-11 05:06:00,
2013-05-11 01:11:00,59.9,55.1,29.78,NW,312,0.0,2.0,84,0.00,,,0.00,VWS V14.01,2013-05-11 05:11:00,
2013-05-11 01:16:00,59.5,54.7,29.78,NW,312,0.0,3.0,84,0.00,,,0.00,VWS V14.01,2013-05-11 05:16:00,
2013-05-11 01:21:00,59.3,54.5,29.78,NW,312,0.0,3.0,84,0.00,,,0.00,VWS V14.01,2013-05-11 05:21:00,
2013-05-11 01:26:00,59.7,54.5,29.79,NW,309,5.0,7.0,83,0.00,,,0.00,VWS V14.01,2013-05-11 05:26:00,
2013-05-11 01:31:00,60.4,54.9,29.79,NW,306,0.0,7.0,82,0.00,,,0.00,VWS V14.01,2013-05-11 05:31:00,
2013-05-11 01:36:00,60.0,54.8,29.79,West,266,1.0,3.0,83,0.00,,,0.00,VWS V14.01,2013-05-11 05:36:00,
2013-05-11 01:41:00,60.1,54.3,29.79,WSW,242,1.0,4.0,81,0.00,,,0.00,VWS V14.01,2013-05-11 05:41:00,
2013-05-11 01:46:00,60.9,54.0,29.78,WNW,289,0.0,8.0,78,0.00,,,0.00,VWS V14.01,2013-05-11 05:46:00,
2013-05-11 01:51:00,61.5,54.2,29.78,SW,230,0.0,8.0,77,0.00,,,0.00,VWS V14.01,2013-05-11 05:51:00,
2013-05-11 01:56:00,61.6,54.7,29.78,SW,230,0.0,0.0,78,0.00,,,0.00,VWS V14.01,2013-05-11 05:56:00,
2013-05-11 02:01:00,61.6,54.0,29.78,SSW,199,1.0,4.0,76,0.00,,,0.00,VWS V14.01,2013-05-11 06:01:00,
2013-05-11 02:06:00,61.8,54.2,29.78,SW,229,0.0,1.0,76,0.00,,,0.00,VWS V14.01,2013-05-11 06:06:00,
2013-05-11 02:11:00,61.7,55.1,29.78,West,276,0.0,5.0,79,0.00,,,0.00,VWS V14.01,2013-05-11 06:11:00,
2013-05-11 02:16:00,61.4,55.2,29.78,SW,232,2.0,6.0,80,0.00,,,0.00,VWS V14.01,2013-05-11 06:16:00,
2013-05-11 02:21:00,60.9,55.0,29.78,South,170,2.0,6.0,81,0.01,,,0.01,VWS V14.01,2013-05-11 06:21:00,
2013-05-11 02:26:00,60.4,55.2,29.78,West,264,0.0,0.0,83,0.02,,,0.02,VWS V14.01,2013-05-11 06:26:00,
2013-05-11 02:31:00,60.0,55.5,29.78,SW,228,0.0,2.0,85,0.02,,,0.02,VWS V14.01,2013-05-11 06:31:00,
2013-05-11 02:36:00,59.5,55.3,29.77,SSW,192,0.0,0.0,86,0.02,,,0.02,VWS V14.01,2013-05-11 06:36:00,
2013-05-11 02:41:00,59.2,55.7,29.77,SSW,213,0.0,4.0,88,0.02,,,0.02,VWS V14.01,2013-05-11 06:41:00,
2013-05-11 02:46:00,58.8,55.6,29.77,SSW,204,0.0,0.0,89,0.02,,,0.02,VWS V14.01,2013-05-11 06:46:00,
2013-05-11 02:51:00,58.7,55.5,29.76,WSW,255,0.0,3.0,89,0.02,,,0.02,VWS V14.01,2013-05-11 06:51:00,
2013-05-11 02:56:00,58.6,55.4,29.76,WNW,302,1.0,2.0,89,0.02,,,0.02,VWS V14.01,2013-05-11 06:56:00,
2013-05-11 03:01:00,58.6,55.4,29.76,WNW,291,0.0,3.0,89,0.02,,,0.02,VWS V14.01,2013-05-11 07:01:00,
2013-05-11 03:06:00,58.5,55.6,29.76,West,267,0.0,1.0,90,0.02,,,0.02,VWS V14.01,2013-05-11 07:06:00,
2013-05-11 03:11:00,58.2,55.6,29.76,West,262,1.0,2.0,91,0.02,,,0.02,VWS V14.01,2013-05-11 07:11:00,
2013-05-11 03:16:00,58.3,55.4,29.76,West,260,2.0,3.0,90,0.02,,,0.02,VWS V14.01,2013-05-11 07:16:00,
2013-05-11 03:21:00,58.5,55.6,29.76,West,259,0.0,3.0,90,0.02,,,0.02,VWS V14.01,2013-05-11 07:21:00,
2013-05-11 03:26:00,58.5,55.9,29.75,South,172,1.0,1.0,91,0.01,,,0.02,VWS V14.01,2013-05-11 07:26:00,
2013-05-11 03:31:00,58.3,55.7,29.75,South,172,0.0,1.0,91,0.01,,,0.02,VWS V14.01,2013-05-11 07:31:00,
2013-05-11 03:36:00,58.3,56.0,29.75,South,172,0.0,0.0,92,0.00,,,0.02,VWS V14.01,2013-05-11 07:36:00,
2013-05-11 03:41:00,58.3,56.0,29.74,SW,236,0.0,2.0,92,0.00,,,0.02,VWS V14.01,2013-05-11 07:41:00,
2013-05-11 03:46:00,58.2,55.9,29.73,NNW,331,0.0,3.0,92,0.00,,,0.02,VWS V14.01,2013-05-11 07:46:00,
2013-05-11 03:51:00,58.2,55.9,29.73,SW,214,1.0,5.0,92,0.00,,,0.02,VWS V14.01,2013-05-11 07:51:00,
2013-05-11 03:56:00,58.1,55.8,29.73,SSE,167,0.0,0.0,92,0.00,,,0.02,VWS V14.01,2013-05-11 07:56:00,
2013-05-11 04:01:00,58.1,55.8,29.72,SSE,167,0.0,0.0,92,0.00,,,0.02,VWS V14.01,2013-05-11 08:01:00,
2013-05-11 04:06:00,58.0,56.0,29.72,SSE,167,0.0,0.0,93,0.00,,,0.02,VWS V14.01,2013-05-11 08:06:00,
2013-05-11 04:11:00,57.8,55.8,29.73,North,360,0.0,4.0,93,0.00,,,0.02,VWS V14.01,2013-05-11 08:11:00,
2013-05-11 04:16:00,57.6,55.6,29.73,North,5,0.0,1.0,93,0.00,,,0.02,VWS V14.01,2013-05-11 08:16:00,
2013-05-11 04:21:00,57.5,55.5,29.72,SSW,195,0.0,4.0,93,0.00,,,0.02,VWS V14.01,2013-05-11 08:21:00,
2013-05-11 04:26:00,57.9,55.6,29.72,North,355,0.0,5.0,92,0.01,,,0.03,VWS V14.01,2013-05-11 08:26:00,
2013-05-11 04:31:00,58.1,55.8,29.72,North,355,0.0,5.0,92,0.01,,,0.03,VWS V14.01,2013-05-11 08:31:00,
2013-05-11 04:36:00,58.0,55.7,29.72,North,355,4.0,4.0,92,0.01,,,0.03,VWS V14.01,2013-05-11 08:36:00,
2013-05-11 04:41:00,57.7,55.7,29.72,SW,233,0.0,5.0,93,0.01,,,0.03,VWS V14.01,2013-05-11 08:41:00,
2013-05-11 04:46:00,57.8,55.8,29.71,South,170,0.0,1.0,93,0.01,,,0.03,VWS V14.01,2013-05-11 08:46:00,
2013-05-11 04:51:00,57.8,55.8,29.71,West,261,0.0,3.0,93,0.01,,,0.03,VWS V14.01,2013-05-11 08:51:00,
2013-05-11 04:56:00,57.9,55.6,29.71,West,261,1.0,2.0,92,0.01,,,0.03,VWS V14.01,2013-05-11 08:56:00,
2013-05-11 05:01:00,58.0,55.7,29.71,ESE,111,0.0,2.0,92,0.01,,,0.03,VWS V14.01,2013-05-11 09:01:00,
2013-05-11 05:06:00,58.4,55.8,29.71,West,263,0.0,1.0,91,0.01,,,0.03,VWS V14.01,2013-05-11 09:06:00,
2013-05-11 05:11:00,58.7,56.1,29.71,West,263,0.0,1.0,91,0.01,,,0.03,VWS V14.01,2013-05-11 09:11:00,
2013-05-11 05:16:00,58.9,55.7,29.71,SW,217,0.0,5.0,89,0.01,,,0.03,VWS V14.01,2013-05-11 09:16:00,
2013-05-11 05:21:00,59.2,56.0,29.71,NW,319,1.0,6.0,89,0.01,,,0.03,VWS V14.01,2013-05-11 09:21:00,
2013-05-11 05:26:00,59.1,55.9,29.71,West,276,0.0,1.0,89,0.00,,,0.03,VWS V14.01,2013-05-11 09:26:00,
2013-05-11 05:31:00,59.1,55.9,29.70,East,80,0.0,5.0,89,0.00,,,0.03,VWS V14.01,2013-05-11 09:31:00,
2013-05-11 05:36:00,59.0,56.1,29.70,NW,306,0.0,1.0,90,0.00,,,0.03,VWS V14.01,2013-05-11 09:36:00,
2013-05-11 05:41:00,58.8,55.9,29.69,WNW,300,1.0,3.0,90,0.00,,,0.03,VWS V14.01,2013-05-11 09:41:00,
2013-05-11 05:46:00,58.6,55.7,29.69,WNW,300,0.0,1.0,90,0.01,,,0.04,VWS V14.01,2013-05-11 09:46:00,
2013-05-11 05:51:00,58.4,55.5,29.70,East,99,1.0,6.0,90,0.01,,,0.04,VWS V14.01,2013-05-11 09:51:00,
2013-05-11 05:56:00,58.5,55.6,29.70,SSW,202,0.0,6.0,90,0.01,,,0.04,VWS V14.01,2013-05-11 09:56:00,
2013-05-11 06:01:00,58.4,55.5,29.70,West,269,0.0,6.0,90,0.01,,,0.04,VWS V14.01,2013-05-11 10:01:00,
2013-05-11 06:06:00,58.3,55.4,29.70,SW,228,0.0,1.0,90,0.01,,,0.04,VWS V14.01,2013-05-11 10:06:00,
2013-05-11 06:11:00,58.6,55.4,29.70,NW,306,1.0,10.0,89,0.01,,,0.04,VWS V14.01,2013-05-11 10:11:00,
2013-05-11 06:16:00,59.1,54.9,29.70,SW,219,0.0,6.0,86,0.01,,,0.04,VWS V14.01,2013-05-11 10:16:00,
2013-05-11 06:21:00,59.5,55.0,29.69,South,191,0.0,6.0,85,0.01,,,0.04,VWS V14.01,2013-05-11 10:21:00,
2013-05-11 06:26:00,59.4,55.2,29.70,West,269,0.0,0.0,86,0.01,,,0.04,VWS V14.01,2013-05-11 10:26:00,
2013-05-11 06:31:00,59.3,55.4,29.70,NW,323,0.0,7.0,87,0.01,,,0.04,VWS V14.01,2013-05-11 10:31:00,
2013-05-11 06:36:00,58.8,55.6,29.70,NW,323,0.0,0.0,89,0.02,,,0.05,VWS V14.01,2013-05-11 10:36:00,
2013-05-11 06:41:00,58.5,55.6,29.69,NNW,331,0.0,1.0,90,0.02,,,0.05,VWS V14.01,2013-05-11 10:41:00,
2013-05-11 06:46:00,58.1,55.2,29.69,NE,55,1.0,1.0,90,0.01,,,0.05,VWS V14.01,2013-05-11 10:46:00,
2013-05-11 06:51:00,58.0,55.4,29.69,SSW,194,0.0,5.0,91,0.02,,,0.06,VWS V14.01,2013-05-11 10:51:00,
2013-05-11 06:56:00,57.8,55.5,29.69,WSW,242,0.0,3.0,92,0.02,,,0.06,VWS V14.01,2013-05-11 10:56:00,
2013-05-11 07:01:00,57.8,55.5,29.69,SSW,211,0.0,3.0,92,0.02,,,0.06,VWS V14.01,2013-05-11 11:01:00,
2013-05-11 07:06:00,57.7,55.7,29.69,SSW,211,0.0,1.0,93,0.02,,,0.06,VWS V14.01,2013-05-11 11:06:00,
2013-05-11 07:11:00,57.6,55.6,29.69,SSW,211,0.0,1.0,93,0.02,,,0.06,VWS V14.01,2013-05-11 11:11:00,
2013-05-11 07:16:00,57.5,55.8,29.68,SSW,205,0.0,2.0,94,0.02,,,0.06,VWS V14.01,2013-05-11 11:16:00,
2013-05-11 07:21:00,57.5,55.8,29.68,SW,236,0.0,7.0,94,0.02,,,0.06,VWS V14.01,2013-05-11 11:21:00,
2013-05-11 07:26:00,57.5,55.8,29.68,SSW,200,1.0,4.0,94,0.02,,,0.06,VWS V14.01,2013-05-11 11:26:00,
2013-05-11 07:31:00,57.5,55.8,29.68,SW,223,1.0,4.0,94,0.02,,,0.06,VWS V14.01,2013-05-11 11:31:00,
2013-05-11 07:36:00,57.5,55.8,29.68,SW,215,0.0,3.0,94,0.01,,,0.06,VWS V14.01,2013-05-11 11:36:00,
2013-05-11 07:41:00,57.5,55.8,29.68,SW,236,0.0,4.0,94,0.01,,,0.06,VWS V14.01,2013-05-11 11:41:00,
2013-05-11 07:46:00,57.5,55.8,29.68,SW,229,0.0,1.0,94,0.01,,,0.06,VWS V14.01,2013-05-11 11:46:00,
2013-05-11 07:51:00,57.5,55.8,29.68,SW,217,0.0,4.0,94,0.01,,,0.06,VWS V14.01,2013-05-11 11:51:00,
2013-05-11 07:56:00,57.5,55.8,29.68,NNW,335,0.0,0.0,94,0.00,,,0.06,VWS V14.01,2013-05-11 11:56:00,
2013-05-11 08:01:00,57.5,55.8,29.68,WNW,293,0.0,6.0,94,0.00,,,0.06,VWS V14.01,2013-05-11 12:01:00,
2013-05-11 08:06:00,57.7,56.0,29.68,WNW,291,0.0,0.0,94,0.00,,,0.06,VWS V14.01,2013-05-11 12:06:00,
2013-05-11 08:11:00,57.9,55.9,29.67,WNW,300,0.0,9.0,93,0.01,,,0.07,VWS V14.01,2013-05-11 12:11:00,
2013-05-11 08:16:00,58.2,56.2,29.67,NW,315,0.0,0.0,93,0.01,,,0.07,VWS V14.01,2013-05-11 12:16:00,
2013-05-11 08:21:00,58.2,56.2,29.67,SSW,207,3.0,5.0,93,0.01,,,0.07,VWS V14.01,2013-05-11 12:21:00,
2013-05-11 08:26:00,58.4,56.4,29.67,SW,229,0.0,4.0,93,0.01,,,0.07,VWS V14.01,2013-05-11 12:26:00,
2013-05-11 08:31:00,58.5,56.5,29.67,WNW,294,1.0,7.0,93,0.01,,,0.07,VWS V14.01,2013-05-11 12:31:00,
2013-05-11 08:36:00,58.6,56.6,29.67,SW,227,8.0,8.0,93,0.01,,,0.07,VWS V14.01,2013-05-11 12:36:00,
2013-05-11 08:41:00,58.9,56.6,29.67,SW,234,0.0,8.0,92,0.01,,,0.07,VWS V14.01,2013-05-11 12:41:00,
2013-05-11 08:46:00,59.1,56.8,29.67,WSW,248,0.0,3.0,92,0.01,,,0.07,VWS V14.01,2013-05-11 12:46:00,
2013-05-11 08:51:00,59.5,56.9,29.67,SSW,195,3.0,9.0,91,0.01,,,0.07,VWS V14.01,2013-05-11 12:51:00,
2013-05-11 08:56:00,59.9,57.0,29.66,NNE,30,1.0,5.0,90,0.01,,,0.07,VWS V14.01,2013-05-11 12:56:00,
2013-05-11 09:01:00,60.2,57.0,29.66,WSW,237,0.0,6.0,89,0.01,,,0.07,VWS V14.01,2013-05-11 13:01:00,
2013-05-11 09:06:00,60.5,57.2,29.66,NNW,340,0.0,3.0,89,0.01,,,0.07,VWS V14.01,2013-05-11 13:06:00,
2013-05-11 09:11:00,60.8,57.5,29.66,NW,312,5.0,7.0,89,0.01,,,0.07,VWS V14.01,2013-05-11 13:11:00,
2013-05-11 09:16:00,61.1,57.5,29.66,WNW,290,0.0,3.0,88,0.00,,,0.07,VWS V14.01,2013-05-11 13:16:00,
2013-05-11 09:21:00,61.3,57.4,29.66,NW,317,1.0,10.0,87,0.00,,,0.07,VWS V14.01,2013-05-11 13:21:00,
2013-05-11 09:26:00,61.4,57.5,29.66,WSW,247,0.0,6.0,87,0.00,,,0.07,VWS V14.01,2013-05-11 13:26:00,
2013-05-11 09:31:00,61.5,57.0,29.65,SW,226,0.0,10.0,85,0.00,,,0.07,VWS V14.01,2013-05-11 13:31:00,
2013-05-11 09:35:00,61.8,57.2,29.66,SW,228,0.0,4.0,85,0.00,,,0.07,VWS V14.01,2013-05-11 13:35:00,
2013-05-11 09:40:00,62.0,57.5,29.66,WNW,283,0.0,11.0,85,0.00,,,0.07,VWS V14.01,2013-05-11 13:40:00,
2013-05-11 09:45:00,62.2,57.3,29.66,WSW,246,5.0,5.0,84,0.00,,,0.07,VWS V14.01,2013-05-11 13:45:00,
2013-05-11 09:50:00,62.8,57.6,29.65,WSW,255,5.0,14.0,83,0.00,,,0.07,VWS V14.01,2013-05-11 13:50:00,
2013-05-11 09:55:00,63.5,57.9,29.66,SW,236,2.0,6.0,82,0.00,,,0.07,VWS V14.01,2013-05-11 13:55:00,
2013-05-11 10:00:00,64.2,57.9,29.65,WNW,292,4.0,10.0,80,0.00,,,0.07,VWS V14.01,2013-05-11 14:00:00,
2013-05-11 10:05:00,64.7,58.4,29.65,North,355,5.0,10.0,80,0.00,,,0.07,VWS V14.01,2013-05-11 14:05:00,
2013-05-11 10:10:00,64.6,57.6,29.65,NW,322,8.0,10.0,78,0.00,,,0.07,VWS V14.01,2013-05-11 14:10:00,
2013-05-11 10:15:00,64.7,57.7,29.65,SSW,213,6.0,9.0,78,0.00,,,0.07,VWS V14.01,2013-05-11 14:15:00,
2013-05-11 10:20:00,65.2,58.2,29.65,SSW,211,6.0,9.0,78,0.00,,,0.07,VWS V14.01,2013-05-11 14:20:00,
2013-05-11 10:25:00,65.5,58.1,29.65,West,264,2.0,6.0,77,0.00,,,0.07,VWS V14.01,2013-05-11 14:25:00,
2013-05-11 10:30:00,65.6,58.2,29.65,SW,232,6.0,8.0,77,0.00,,,0.07,VWS V14.01,2013-05-11 14:30:00,
2013-05-11 10:35:00,65.3,57.5,29.65,NW,309,8.0,11.0,76,0.00,,,0.07,VWS V14.01,2013-05-11 14:35:00,
2013-05-11 10:40:00,65.4,58.7,29.65,SSW,211,5.0,11.0,79,0.00,,,0.07,VWS V14.01,2013-05-11 14:40:00,
2013-05-11 10:45:00,66.0,58.2,29.64,SW,225,6.0,16.0,76,0.00,,,0.07,VWS V14.01,2013-05-11 14:45:00,
2013-05-11 10:50:00,66.1,58.3,29.65,NW,310,4.0,16.0,76,0.00,,,0.07,VWS V14.01,2013-05-11 14:50:00,
2013-05-11 10:55:00,65.9,57.8,29.64,WNW,299,0.0,3.0,75,0.00,,,0.07,VWS V14.01,2013-05-11 14:55:00,
2013-05-11 11:00:00,65.4,57.7,29.64,WSW,251,5.0,9.0,76,0.00,,,0.07,VWS V14.01,2013-05-11 15:00:00,
2013-05-11 11:05:00,65.0,57.6,29.64,West,274,1.0,4.0,77,0.00,,,0.07,VWS V14.01,2013-05-11 15:05:00,
2013-05-11 11:10:00,64.5,57.1,29.64,ENE,66,0.0,11.0,77,0.00,,,0.07,VWS V14.01,2013-05-11 15:10:00,
2013-05-11 11:15:00,64.0,57.0,29.64,ENE,78,2.0,9.0,78,0.00,,,0.07,VWS V14.01,2013-05-11 15:15:00,
2013-05-11 11:20:00,64.1,57.5,29.64,NW,319,0.0,11.0,79,0.00,,,0.07,VWS V14.01,2013-05-11 15:20:00,
2013-05-11 11:25:00,64.5,58.2,29.64,SW,232,3.0,6.0,80,0.00,,,0.07,VWS V14.01,2013-05-11 15:25:00,
2013-05-11 11:30:00,64.2,57.2,29.65,SSW,200,0.0,13.0,78,0.00,,,0.07,VWS V14.01,2013-05-11 15:30:00,
2013-05-11 11:35:00,64.3,57.3,29.64,WSW,237,0.0,12.0,78,0.00,,,0.07,VWS V14.01,2013-05-11 15:35:00,
2013-05-11 11:40:00,64.5,57.8,29.64,WNW,300,3.0,12.0,79,0.00,,,0.07,VWS V14.01,2013-05-11 15:40:00,
2013-05-11 11:45:00,64.7,57.7,29.64,NW,312,0.0,2.0,78,0.00,,,0.07,VWS V14.01,2013-05-11 15:45:00,
2013-05-11 11:50:00,64.8,57.8,29.64,WSW,244,6.0,9.0,78,0.00,,,0.07,VWS V14.01,2013-05-11 15:50:00,
2013-05-11 11:55:00,64.9,57.5,29.64,SW,214,0.0,5.0,77,0.00,,,0.07,VWS V14.01,2013-05-11 15:55:00,
2013-05-11 12:00:00,64.9,57.9,29.65,SW,228,3.0,10.0,78,0.00,,,0.07,VWS V14.01,2013-05-11 16:00:00,
2013-05-11 12:05:00,64.7,57.3,29.65,SSE,153,5.0,8.0,77,0.00,,,0.07,VWS V14.01,2013-05-11 16:05:00,
2013-05-11 12:10:00,64.4,57.8,29.64,SW,215,2.0,12.0,79,0.00,,,0.07,VWS V14.01,2013-05-11 16:10:00,
2013-05-11 12:15:00,64.2,57.2,29.64,SSW,197,0.0,7.0,78,0.00,,,0.07,VWS V14.01,2013-05-11 16:15:00,
2013-05-11 12:20:00,64.2,57.6,29.64,West,273,4.0,7.0,79,0.00,,,0.07,VWS V14.01,2013-05-11 16:20:00,
2013-05-11 12:25:00,64.2,57.9,29.64,SE,146,1.0,7.0,80,0.00,,,0.07,VWS V14.01,2013-05-11 16:25:00,
2013-05-11 12:30:00,64.2,57.6,29.64,WSW,257,8.0,8.0,79,0.00,,,0.07,VWS V14.01,2013-05-11 16:30:00,
2013-05-11 12:35:00,64.1,57.8,29.64,WSW,238,0.0,2.0,80,0.00,,,0.07,VWS V14.01,2013-05-11 16:35:00,
2013-05-11 12:40:00,64.2,57.6,29.64,WNW,303,5.0,5.0,79,0.00,,,0.07,VWS V14.01,2013-05-11 16:40:00,
2013-05-11 12:45:00,63.9,57.6,29.64,West,280,8.0,8.0,80,0.00,,,0.07,VWS V14.01,2013-05-11 16:45:00,
2013-05-11 12:50:00,63.6,58.0,29.64,SW,215,2.0,11.0,82,0.00,,,0.07,VWS V14.01,2013-05-11 16:50:00,
2013-05-11 12:55:00,63.5,57.6,29.63,SW,228,1.0,8.0,81,0.00,,,0.07,VWS V14.01,2013-05-11 16:55:00,
2013-05-11 13:00:00,63.5,57.6,29.63,WNW,298,1.0,8.0,81,0.00,,,0.07,VWS V14.01,2013-05-11 17:00:00,
2013-05-11 13:05:00,63.5,57.9,29.64,SSW,211,0.0,1.0,82,0.00,,,0.07,VWS V14.01,2013-05-11 17:05:00,
2013-05-11 13:10:00,63.4,58.2,29.63,SSW,213,1.0,11.0,83,0.00,,,0.07,VWS V14.01,2013-05-11 17:10:00,
2013-05-11 13:15:00,63.5,58.2,29.63,SSW,212,3.0,3.0,83,0.00,,,0.07,VWS V14.01,2013-05-11 17:15:00,
2013-05-11 13:20:00,63.6,58.0,29.63,WSW,245,1.0,6.0,82,0.00,,,0.07,VWS V14.01,2013-05-11 17:20:00,
2013-05-11 13:25:00,63.8,58.2,29.63,West,264,4.0,10.0,82,0.00,,,0.07,VWS V14.01,2013-05-11 17:25:00,
2013-05-11 13:30:00,63.7,58.5,29.63,NNW,327,0.0,10.0,83,0.00,,,0.07,VWS V14.01,2013-05-11 17:30:00,
2013-05-11 13:35:00,63.9,58.6,29.64,WSW,239,0.0,0.0,83,0.00,,,0.07,VWS V14.01,2013-05-11 17:35:00,
2013-05-11 13:40:00,64.1,58.8,29.64,WSW,255,4.0,4.0,83,0.00,,,0.07,VWS V14.01,2013-05-11 17:40:00,
2013-05-11 13:45:00,64.1,58.5,29.63,SW,224,2.0,5.0,82,0.00,,,0.07,VWS V14.01,2013-05-11 17:45:00,
2013-05-11 13:50:00,64.1,58.5,29.63,SW,221,5.0,6.0,82,0.00,,,0.07,VWS V14.01,2013-05-11 17:50:00,
2013-05-11 13:55:00,64.1,58.2,29.63,West,259,7.0,8.0,81,0.00,,,0.07,VWS V14.01,2013-05-11 17:55:00,
2013-05-11 14:00:00,64.1,58.2,29.63,SE,128,1.0,10.0,81,0.00,,,0.07,VWS V14.01,2013-05-11 18:00:00,
2013-05-11 14:05:00,64.2,58.3,29.63,West,275,5.0,9.0,81,0.00,,,0.07,VWS V14.01,2013-05-11 18:05:00,
2013-05-11 14:10:00,64.3,58.0,29.62,WSW,256,6.0,13.0,80,0.00,,,0.07,VWS V14.01,2013-05-11 18:10:00,
2013-05-11 14:15:00,64.2,57.6,29.63,West,269,1.0,5.0,79,0.00,,,0.07,VWS V14.01,2013-05-11 18:15:00,
2013-05-11 14:20:00,64.4,58.1,29.63,West,276,5.0,5.0,80,0.00,,,0.07,VWS V14.01,2013-05-11 18:20:00,
2013-05-11 14:25:00,64.5,57.5,29.63,SW,227,10.0,10.0,78,0.00,,,0.07,VWS V14.01,2013-05-11 18:25:00,
2013-05-11 14:30:00,64.3,57.3,29.62,WNW,283,6.0,15.0,78,0.00,,,0.07,VWS V14.01,2013-05-11 18:30:00,
2013-05-11 14:35:00,64.5,57.5,29.62,West,279,2.0,4.0,78,0.00,,,0.07,VWS V14.01,2013-05-11 18:35:00,
2013-05-11 14:40:00,65.0,58.3,29.62,WNW,291,2.0,7.0,79,0.00,,,0.07,VWS V14.01,2013-05-11 18:40:00,
2013-05-11 14:45:00,65.2,57.8,29.62,West,281,0.0,6.0,77,0.00,,,0.07,VWS V14.01,2013-05-11 18:45:00,
2013-05-11 14:50:00,65.3,57.2,29.62,West,277,5.0,11.0,75,0.00,,,0.07,VWS V14.01,2013-05-11 18:50:00,
2013-05-11 14:55:00,65.3,57.2,29.62,WSW,240,3.0,3.0,75,0.00,,,0.07,VWS V14.01,2013-05-11 18:55:00,
2013-05-11 15:00:00,65.6,57.8,29.62,SSW,209,5.0,7.0,76,0.00,,,0.07,VWS V14.01,2013-05-11 19:00:00,
2013-05-11 15:05:00,65.3,57.5,29.62,WSW,242,1.0,2.0,76,0.00,,,0.07,VWS V14.01,2013-05-11 19:05:00,
2013-05-11 15:10:00,65.2,57.8,29.62,South,175,0.0,9.0,77,0.00,,,0.07,VWS V14.01,2013-05-11 19:10:00,
2013-05-11 15:15:00,65.1,57.4,29.62,SSW,195,3.0,9.0,76,0.00,,,0.07,VWS V14.01,2013-05-11 19:15:00,
2013-05-11 15:20:00,64.9,57.5,29.61,West,275,3.0,13.0,77,0.00,,,0.07,VWS V14.01,2013-05-11 19:20:00,
2013-05-11 15:25:00,64.8,57.4,29.62,SSW,211,4.0,7.0,77,0.00,,,0.07,VWS V14.01,2013-05-11 19:25:00,
2013-05-11 15:30:00,64.7,57.3,29.61,WSW,247,4.0,15.0,77,0.00,,,0.07,VWS V14.01,2013-05-11 19:30:00,
2013-05-11 15:35:00,64.9,57.2,29.61,NW,306,5.0,5.0,76,0.00,,,0.07,VWS V14.01,2013-05-11 19:35:00,
2013-05-11 15:40:00,65.0,57.3,29.61,WNW,293,2.0,6.0,76,0.00,,,0.07,VWS V14.01,2013-05-11 19:40:00,
2013-05-11 15:45:00,65.4,58.0,29.61,WNW,287,2.0,2.0,77,0.00,,,0.07,VWS V14.01,2013-05-11 19:45:00,
2013-05-11 15:50:00,65.6,58.2,29.61,WNW,290,4.0,5.0,77,0.00,,,0.07,VWS V14.01,2013-05-11 19:50:00,
2013-05-11 15:55:00,65.8,58.0,29.61,NW,305,3.0,5.0,76,0.00,,,0.07,VWS V14.01,2013-05-11 19:55:00,
2013-05-11 16:00:00,65.9,57.8,29.60,WNW,296,3.0,7.0,75,0.00,,,0.07,VWS V14.01,2013-05-11 20:00:00,
2013-05-11 16:05:00,66.1,58.0,29.61,South,171,0.0,0.0,75,0.00,,,0.07,VWS V14.01,2013-05-11 20:05:00,
2013-05-11 16:10:00,65.9,57.4,29.61,SW,219,2.0,13.0,74,0.00,,,0.07,VWS V14.01,2013-05-11 20:10:00,
2013-05-11 16:15:00,65.8,58.0,29.61,South,183,9.0,9.0,76,0.00,,,0.07,VWS V14.01,2013-05-11 20:15:00,
2013-05-11 16:20:00,65.5,57.7,29.61,SW,220,4.0,9.0,76,0.00,,,0.07,VWS V14.01,2013-05-11 20:20:00,
2013-05-11 16:25:00,65.2,57.8,29.61,SW,228,0.0,1.0,77,0.00,,,0.07,VWS V14.01,2013-05-11 20:25:00,
2013-05-11 16:30:00,64.9,57.2,29.61,SSW,213,0.0,7.0,76,0.00,,,0.07,VWS V14.01,2013-05-11 20:30:00,
2013-05-11 16:35:00,64.7,57.7,29.61,SSW,208,0.0,0.0,78,0.00,,,0.07,VWS V14.01,2013-05-11 20:35:00,
2013-05-11 16:40:00,64.6,57.2,29.61,SSW,211,4.0,9.0,77,0.00,,,0.07,VWS V14.01,2013-05-11 20:40:00,
2013-05-11 16:45:00,64.7,57.0,29.61,West,275,2.0,2.0,76,0.00,,,0.07,VWS V14.01,2013-05-11 20:45:00,
2013-05-11 16:50:00,64.8,57.1,29.61,West,265,3.0,11.0,76,0.00,,,0.07,VWS V14.01,2013-05-11 20:50:00,
2013-05-11 16:55:00,64.8,57.1,29.61,WSW,248,1.0,2.0,76,0.00,,,0.07,VWS V14.01,2013-05-11 20:55:00,
2013-05-11 17:00:00,64.7,57.3,29.61,WNW,286,4.0,8.0,77,0.00,,,0.07,VWS V14.01,2013-05-11 21:00:00,
2013-05-11 17:05:00,64.7,56.6,29.61,WSW,245,4.0,5.0,75,0.00,,,0.07,VWS V14.01,2013-05-11 21:05:00,
2013-05-11 17:10:00,64.7,56.6,29.61,SSW,192,3.0,6.0,75,0.00,,,0.07,VWS V14.01,2013-05-11 21:10:00,
2013-05-11 17:15:00,64.6,56.9,29.61,SW,223,0.0,0.0,76,0.00,,,0.07,VWS V14.01,2013-05-11 21:15:00,
2013-05-11 17:20:00,64.5,56.4,29.61,West,267,0.0,8.0,75,0.00,,,0.07,VWS V14.01,2013-05-11 21:20:00,
2013-05-11 17:25:00,64.4,56.3,29.61,WNW,294,0.0,3.0,75,0.00,,,0.07,VWS V14.01,2013-05-11 21:25:00,
2013-05-11 17:30:00,64.4,56.3,29.60,WSW,241,0.0,11.0,75,0.00,,,0.07,VWS V14.01,2013-05-11 21:30:00,
2013-05-11 17:35:00,64.4,56.3,29.60,WSW,255,1.0,1.0,75,0.00,,,0.07,VWS V14.01,2013-05-11 21:35:00,
2013-05-11 17:40:00,64.4,56.3,29.61,NW,310,6.0,9.0,75,0.00,,,0.07,VWS V14.01,2013-05-11 21:40:00,
2013-05-11 17:45:00,64.4,56.3,29.61,West,279,0.0,0.0,75,0.00,,,0.07,VWS V14.01,2013-05-11 21:45:00,
2013-05-11 17:50:00,64.5,56.0,29.61,SW,221,2.0,7.0,74,0.00,,,0.07,VWS V14.01,2013-05-11 21:50:00,
2013-05-11 17:55:00,64.6,56.9,29.61,WSW,248,0.0,3.0,76,0.00,,,0.07,VWS V14.01,2013-05-11 21:55:00,
2013-05-11 18:00:00,64.6,56.9,29.61,WNW,283,0.0,7.0,76,0.00,,,0.07,VWS V14.01,2013-05-11 22:00:00,
2013-05-11 18:05:00,64.5,56.8,29.61,SW,233,1.0,2.0,76,0.00,,,0.07,VWS V14.01,2013-05-11 22:05:00,
2013-05-11 18:10:00,64.0,57.0,29.62,WSW,237,0.0,9.0,78,0.00,,,0.07,VWS V14.01,2013-05-11 22:10:00,
2013-05-11 18:15:00,63.2,56.6,29.62,WSW,248,2.0,2.0,79,0.00,,,0.07,VWS V14.01,2013-05-11 22:15:00,
2013-05-11 18:20:00,62.1,56.5,29.63,West,259,2.0,9.0,82,0.01,,,0.08,VWS V14.01,2013-05-11 22:20:00,
2013-05-11 18:25:00,61.3,56.4,29.63,WNW,287,0.0,0.0,84,0.01,,,0.08,VWS V14.01,2013-05-11 22:25:00,
2013-05-11 18:30:00,60.7,56.8,29.63,SW,236,2.0,5.0,87,0.01,,,0.08,VWS V14.01,2013-05-11 22:30:00,
2013-05-11 18:35:00,60.3,56.4,29.63,SW,227,4.0,5.0,87,0.01,,,0.08,VWS V14.01,2013-05-11 22:35:00,
2013-05-11 18:40:00,60.2,56.3,29.63,WNW,302,3.0,5.0,87,0.01,,,0.08,VWS V14.01,2013-05-11 22:40:00,
2013-05-11 18:45:00,60.3,56.4,29.63,SW,227,0.0,0.0,87,0.01,,,0.08,VWS V14.01,2013-05-11 22:45:00,
2013-05-11 18:50:00,60.2,56.3,29.63,WNW,300,2.0,7.0,87,0.01,,,0.08,VWS V14.01,2013-05-11 22:50:00,
2013-05-11 18:55:00,60.2,56.0,29.64,SW,219,2.0,4.0,86,0.01,,,0.08,VWS V14.01,2013-05-11 22:55:00,
2013-05-11 19:00:00,60.4,56.2,29.64,WNW,301,2.0,7.0,86,0.01,,,0.08,VWS V14.01,2013-05-11 23:00:00,
2013-05-11 19:05:00,60.8,56.3,29.63,WSW,258,0.0,0.0,85,0.01,,,0.08,VWS V14.01,2013-05-11 23:05:00,
2013-05-11 19:10:00,61.0,55.1,29.64,SSW,194,0.0,8.0,81,0.01,,,0.08,VWS V14.01,2013-05-11 23:10:00,
2013-05-11 19:15:00,61.1,55.2,29.64,WSW,243,0.0,0.0,81,0.01,,,0.08,VWS V14.01,2013-05-11 23:15:00,
2013-05-11 19:20:00,61.1,53.8,29.64,NW,325,0.0,8.0,77,0.01,,,0.08,VWS V14.01,2013-05-11 23:20:00,
2013-05-11 19:25:00,61.6,54.3,29.64,WNW,294,0.0,1.0,77,0.00,,,0.08,VWS V14.01,2013-05-11 23:25:00,
2013-05-11 19:30:00,61.8,55.2,29.64,WSW,246,0.0,3.0,79,0.00,,,0.08,VWS V14.01,2013-05-11 23:30:00,
2013-05-11 19:35:00,61.4,54.1,29.64,WSW,254,0.0,0.0,77,0.00,,,0.08,VWS V14.01,2013-05-11 23:35:00,
2013-05-11 19:40:00,61.1,53.8,29.65,East,90,0.0,4.0,77,0.00,,,0.08,VWS V14.01,2013-05-11 23:40:00,
2013-05-11 19:45:00,60.9,54.0,29.65,SW,232,0.0,4.0,78,0.00,,,0.08,VWS V14.01,2013-05-11 23:45:00,
2013-05-11 19:50:00,60.6,54.4,29.65,NNE,18,0.0,6.0,80,0.00,,,0.08,VWS V14.01,2013-05-11 23:50:00,
2013-05-11 19:55:00,59.9,54.4,29.66,NE,52,0.0,6.0,82,0.00,,,0.08,VWS V14.01,2013-05-11 23:55:00,
2013-05-11 20:00:00,58.7,53.6,29.65,ESE,105,4.0,4.0,83,0.00,,,0.08,VWS V14.01,2013-05-12 00:00:00,
2013-05-11 20:05:00,57.8,52.7,29.66,West,270,0.0,4.0,83,0.00,,,0.08,VWS V14.01,2013-05-12 00:05:00,
2013-05-11 20:10:00,57.3,52.2,29.66,South,171,0.0,1.0,83,0.00,,,0.08,VWS V14.01,2013-05-12 00:10:00,
2013-05-11 20:15:00,56.8,51.7,29.66,ESE,105,0.0,1.0,83,0.00,,,0.08,VWS V14.01,2013-05-12 00:15:00,
2013-05-11 20:20:00,56.6,51.8,29.66,SE,145,0.0,2.0,84,0.00,,,0.08,VWS V14.01,2013-05-12 00:20:00,
2013-05-11 20:25:00,56.2,51.8,29.66,ESE,102,0.0,4.0,85,0.00,,,0.08,VWS V14.01,2013-05-12 00:25:00,
2013-05-11 20:30:00,55.9,51.5,29.67,West,279,0.0,1.0,85,0.00,,,0.08,VWS V14.01,2013-05-12 00:30:00,
2013-05-11 20:35:00,55.8,51.4,29.67,NW,307,0.0,2.0,85,0.00,,,0.08,VWS V14.01,2013-05-12 00:35:00,
2013-05-11 20:40:00,55.6,51.5,29.67,NW,311,1.0,1.0,86,0.00,,,0.08,VWS V14.01,2013-05-12 00:40:00,
2013-05-11 20:45:00,55.3,51.2,29.67,East,92,0.0,4.0,86,0.00,,,0.08,VWS V14.01,2013-05-12 00:45:00,
2013-05-11 20:50:00,55.1,51.3,29.67,East,92,0.0,1.0,87,0.00,,,0.08,VWS V14.01,2013-05-12 00:50:00,
2013-05-11 20:55:00,54.9,51.1,29.68,East,92,0.0,1.0,87,0.00,,,0.08,VWS V14.01,2013-05-12 00:55:00,
2013-05-11 21:00:00,54.6,50.8,29.68,East,92,0.0,0.0,87,0.00,,,0.08,VWS V14.01,2013-05-12 01:00:00,
2013-05-11 21:05:00,54.4,50.9,29.68,East,92,0.0,0.0,88,0.00,,,0.08,VWS V14.01,2013-05-12 01:05:00,
2013-05-11 21:10:00,54.2,50.7,29.67,East,92,0.0,4.0,88,0.00,,,0.08,VWS V14.01,2013-05-12 01:10:00,
2013-05-11 21:15:00,54.0,50.5,29.67,ESE,104,0.0,4.0,88,0.00,,,0.08,VWS V14.01,2013-05-12 01:15:00,
2013-05-11 21:20:00,53.8,50.6,29.67,East,100,0.0,1.0,89,0.00,,,0.08,VWS V14.01,2013-05-12 01:20:00,
2013-05-11 21:25:00,53.6,50.4,29.67,East,100,0.0,4.0,89,0.00,,,0.08,VWS V14.01,2013-05-12 01:25:00,
2013-05-11 21:30:00,53.4,50.2,29.67,East,100,4.0,4.0,89,0.00,,,0.08,VWS V14.01,2013-05-12 01:30:00,
2013-05-11 21:35:00,53.2,49.7,29.67,ESE,119,0.0,4.0,88,0.00,,,0.08,VWS V14.01,2013-05-12 01:35:00,
2013-05-11 21:40:00,53.0,49.2,29.67,East,94,1.0,4.0,87,0.00,,,0.08,VWS V14.01,2013-05-12 01:40:00,
2013-05-11 21:45:00,53.0,49.2,29.67,ESE,119,0.0,6.0,87,0.00,,,0.08,VWS V14.01,2013-05-12 01:45:00,
2013-05-11 21:50:00,53.0,48.9,29.68,East,88,0.0,2.0,86,0.00,,,0.08,VWS V14.01,2013-05-12 01:50:00,
2013-05-11 21:55:00,52.9,48.8,29.67,NE,47,1.0,2.0,86,0.00,,,0.08,VWS V14.01,2013-05-12 01:55:00,
2013-05-11 22:00:00,52.9,49.1,29.67,ENE,58,0.0,2.0,87,0.00,,,0.08,VWS V14.01,2013-05-12 02:00:00,
2013-05-11 22:05:00,52.8,49.0,29.67,ENE,59,0.0,2.0,87,0.00,,,0.08,VWS V14.01,2013-05-12 02:05:00,
2013-05-11 22:10:00,52.8,48.7,29.67,SSE,150,1.0,5.0,86,0.00,,,0.08,VWS V14.01,2013-05-12 02:10:00,
2013-05-11 22:15:00,52.8,48.7,29.67,SSE,150,0.0,5.0,86,0.00,,,0.08,VWS V14.01,2013-05-12 02:15:00,
2013-05-11 22:19:00,52.8,48.7,29.68,SSE,148,0.0,1.0,86,0.00,,,0.08,VWS V14.01,2013-05-12 02:19:00,
2013-05-11 22:24:00,52.8,48.4,29.68,SSE,148,0.0,1.0,85,0.00,,,0.08,VWS V14.01,2013-05-12 02:24:00,
2013-05-11 22:29:00,52.8,48.4,29.68,SSE,148,0.0,1.0,85,0.00,,,0.08,VWS V14.01,2013-05-12 02:29:00,
2013-05-11 22:34:00,52.8,48.4,29.68,SSE,148,0.0,1.0,85,0.00,,,0.08,VWS V14.01,2013-05-12 02:34:00,
2013-05-11 22:39:00,52.7,48.3,29.68,SSE,148,0.0,0.0,85,0.00,,,0.08,VWS V14.01,2013-05-12 02:39:00,
2013-05-11 22:44:00,52.7,48.6,29.68,SSE,148,0.0,1.0,86,0.00,,,0.08,VWS V14.01,2013-05-12 02:44:00,
2013-05-11 22:49:00,52.6,48.2,29.68,SSE,148,0.0,0.0,85,0.00,,,0.08,VWS V14.01,2013-05-12 02:49:00,
2013-05-11 22:54:00,52.6,48.5,29.68,SSE,148,0.0,1.0,86,0.00,,,0.08,VWS V14.01,2013-05-12 02:54:00,
2013-05-11 22:59:00,52.4,48.3,29.68,SSE,148,0.0,0.0,86,0.00,,,0.08,VWS V14.01,2013-05-12 02:59:00,
2013-05-11 23:04:00,52.3,47.9,29.68,SE,137,0.0,4.0,85,0.00,,,0.08,VWS V14.01,2013-05-12 03:04:00,
2013-05-11 23:09:00,52.1,48.0,29.68,ESE,117,0.0,2.0,86,0.00,,,0.08,VWS V14.01,2013-05-12 03:09:00,
2013-05-11 23:14:00,52.0,48.0,29.68,East,91,0.0,2.0,86,0.00,,,0.08,VWS V14.01,2013-05-12 03:14:00,
2013-05-11 23:19:00,51.9,47.8,29.68,East,91,0.0,2.0,86,0.00,,,0.08,VWS V14.01,2013-05-12 03:19:00,
2013-05-11 23:24:00,51.7,47.7,29.68,East,90,0.0,2.0,86,0.00,,,0.08,VWS V14.01,2013-05-12 03:24:00,
2013-05-11 23:29:00,51.6,47.6,29.68,East,90,0.0,1.0,86,0.00,,,0.08,VWS V14.01,2013-05-12 03:29:00,
2013-05-11 23:34:00,51.4,47.4,29.68,ESE,111,0.0,1.0,86,0.00,,,0.08,VWS V14.01,2013-05-12 03:34:00,
2013-05-11 23:39:00,51.2,47.2,29.68,ESE,118,0.0,4.0,86,0.00,,,0.08,VWS V14.01,2013-05-12 03:39:00,
2013-05-11 23:44:00,51.2,47.5,29.67,ESE,118,0.0,4.0,87,0.00,,,0.08,VWS V14.01,2013-05-12 03:44:00,
2013-05-11 23:49:00,51.1,47.1,29.67,ENE,76,0.0,2.0,86,0.00,,,0.08,VWS V14.01,2013-05-12 03:49:00,
2013-05-11 23:54:00,51.1,47.1,29.67,East,90,0.0,3.0,86,0.00,,,0.08,VWS V14.01,2013-05-12 03:54:00,
2013-05-11 23:59:00,51.2,47.2,29.68,ESE,102,0.0,4.0,86,0.00,,,0.08,VWS V14.01,2013-05-12 03:59:00,